createdAt,value
2022-08-28T00:00:19.185Z,17.18
2022-08-28T00:02:46.907Z,17.19
2022-08-28T00:05:14.892Z,17.16
2022-08-28T00:07:47.022Z,17.11
2022-08-28T00:10:17.548Z,17.07
2022-08-28T00:12:45.433Z,17.05
2022-08-28T00:15:15.887Z,17.06
2022-08-28T00:17:42.900Z,17.05
2022-08-28T00:20:12.082Z,17.06
2022-08-28T00:22:39.386Z,16.99
2022-08-28T00:25:11.238Z,17.01
2022-08-28T00:27:53.575Z,17.07
2022-08-28T00:30:33.091Z,16.98
2022-08-28T00:33:04.100Z,16.96
2022-08-28T00:35:31.164Z,16.92
2022-08-28T00:37:58.016Z,16.88
2022-08-28T00:40:28.468Z,16.87
2022-08-28T00:43:01.710Z,16.84
2022-08-28T00:45:29.402Z,16.84
2022-08-28T00:47:56.389Z,16.78
2022-08-28T00:50:26.742Z,16.78
2022-08-28T00:53:00.539Z,16.80
2022-08-28T00:55:29.055Z,16.78
2022-08-28T00:57:59.458Z,16.74
2022-08-28T01:00:35.760Z,16.78
2022-08-28T01:03:05.703Z,16.77
2022-08-28T01:05:34.971Z,16.67
2022-08-28T01:08:04.335Z,16.66
2022-08-28T01:10:34.754Z,16.65
2022-08-28T01:13:01.858Z,16.69
2022-08-28T01:15:34.151Z,16.69
2022-08-28T01:18:08.078Z,16.80
2022-08-28T01:20:41.102Z,16.80
2022-08-28T01:23:10.960Z,16.84
2022-08-28T01:25:39.067Z,16.77
2022-08-28T01:28:09.071Z,16.84
2022-08-28T01:30:36.642Z,16.78
2022-08-28T01:33:04.304Z,16.82
2022-08-28T01:35:34.577Z,16.85
2022-08-28T01:38:01.927Z,16.85
2022-08-28T01:40:36.759Z,16.77
2022-08-28T01:43:13.465Z,16.87
2022-08-28T01:45:42.739Z,16.82
2022-08-28T01:48:09.700Z,16.86
2022-08-28T01:50:37.005Z,16.90
2022-08-28T01:53:05.326Z,16.90
2022-08-28T01:55:36.088Z,16.96
2022-08-28T01:58:07.520Z,17.04
2022-08-28T02:00:35.172Z,17.04
2022-08-28T02:03:02.183Z,16.90
2022-08-28T02:05:31.445Z,16.98
2022-08-28T02:07:59.760Z,17.05
2022-08-28T02:10:32.403Z,17.03
2022-08-28T02:13:00.277Z,17.09
2022-08-28T02:15:30.630Z,17.16
2022-08-28T02:17:57.559Z,17.16
2022-08-28T02:20:24.869Z,17.15
2022-08-28T02:22:51.916Z,17.23
2022-08-28T02:25:20.190Z,17.24
2022-08-28T02:27:47.062Z,17.17
2022-08-28T02:30:16.294Z,17.17
2022-08-28T02:32:44.456Z,17.18
2022-08-28T02:35:13.871Z,17.18
2022-08-28T02:37:42.434Z,17.14
2022-08-28T02:40:10.796Z,17.18
2022-08-28T02:42:37.512Z,17.14
2022-08-28T02:45:04.704Z,17.16
2022-08-28T02:47:31.866Z,17.07
2022-08-28T02:49:58.577Z,17.05
2022-08-28T02:52:25.330Z,16.92
2022-08-28T02:54:52.095Z,16.94
2022-08-28T02:57:18.921Z,16.86
2022-08-28T02:59:47.813Z,16.91
2022-08-28T03:02:14.686Z,16.92
2022-08-28T03:04:42.157Z,16.95
2022-08-28T03:07:10.015Z,17.06
2022-08-28T03:09:37.989Z,17.08
2022-08-28T03:12:04.912Z,17.08
2022-08-28T03:14:31.654Z,17.08
2022-08-28T03:16:58.375Z,17.10
2022-08-28T03:19:25.152Z,17.16
2022-08-28T03:21:54.470Z,17.10
2022-08-28T03:24:21.286Z,17.28
2022-08-28T03:26:48.121Z,17.30
2022-08-28T03:29:14.898Z,17.30
2022-08-28T03:31:41.610Z,17.35
2022-08-28T03:34:09.554Z,17.30
2022-08-28T03:36:36.348Z,17.38
2022-08-28T03:39:06.034Z,17.40
2022-08-28T03:41:34.615Z,17.41
2022-08-28T03:44:01.770Z,17.48
2022-08-28T03:46:32.904Z,17.50
2022-08-28T03:49:01.267Z,17.52
2022-08-28T03:51:31.533Z,17.61
2022-08-28T03:54:02.444Z,17.62
2022-08-28T03:56:30.750Z,17.63
2022-08-28T03:59:00.855Z,17.68
2022-08-28T04:01:28.150Z,17.68
2022-08-28T04:03:55.813Z,17.68
2022-08-28T04:06:22.981Z,17.70
2022-08-28T04:08:50.996Z,17.75
2022-08-28T04:11:18.523Z,17.68
2022-08-28T04:13:45.476Z,17.73
2022-08-28T04:16:17.446Z,17.68
2022-08-28T04:18:45.027Z,17.67
2022-08-28T04:21:15.265Z,17.67
2022-08-28T04:23:43.977Z,17.64
2022-08-28T04:26:13.702Z,17.67
2022-08-28T04:28:40.570Z,17.70
2022-08-28T04:31:08.242Z,17.62
2022-08-28T04:33:35.891Z,17.49
2022-08-28T04:36:09.186Z,17.50
2022-08-28T04:38:41.584Z,17.52
2022-08-28T04:41:12.895Z,17.58
2022-08-28T04:43:39.818Z,17.64
2022-08-28T04:46:12.502Z,17.51
2022-08-28T04:48:41.059Z,17.54
2022-08-28T04:51:10.198Z,17.62
2022-08-28T04:53:37.992Z,17.54
2022-08-28T04:56:07.432Z,17.59
2022-08-28T04:58:34.839Z,17.53
2022-08-28T05:01:12.831Z,17.60
2022-08-28T05:03:40.170Z,17.56
2022-08-28T05:06:07.180Z,17.62
2022-08-28T05:08:34.181Z,17.59
2022-08-28T05:11:34.021Z,17.63
2022-08-28T05:14:09.627Z,17.60
2022-08-28T05:16:47.599Z,17.67
2022-08-28T05:19:16.593Z,17.82
2022-08-28T05:21:43.439Z,17.94
2022-08-28T05:24:10.457Z,17.93
2022-08-28T05:26:38.916Z,17.99
2022-08-28T05:29:07.952Z,17.96
2022-08-28T05:31:35.145Z,18.08
2022-08-28T05:34:02.735Z,18.11
2022-08-28T05:36:34.571Z,18.08
2022-08-28T05:39:04.289Z,18.14
2022-08-28T05:41:31.916Z,18.14
2022-08-28T05:44:00.659Z,18.10
2022-08-28T05:46:28.338Z,18.15
2022-08-28T05:48:56.136Z,18.14
2022-08-28T05:51:26.058Z,18.26
2022-08-28T05:53:54.035Z,18.32
2022-08-28T05:56:29.487Z,18.39
2022-08-28T05:58:57.676Z,18.35
2022-08-28T06:01:30.659Z,18.27
2022-08-28T06:04:01.930Z,18.35
2022-08-28T06:06:30.292Z,18.32
2022-08-28T06:09:02.788Z,18.19
2022-08-28T06:11:31.218Z,18.24
2022-08-28T06:14:03.437Z,18.44
2022-08-28T06:16:32.331Z,18.35
2022-08-28T06:19:00.611Z,18.42
2022-08-28T06:21:28.952Z,18.37
2022-08-28T06:23:56.448Z,18.42
2022-08-28T06:26:23.749Z,18.41
2022-08-28T06:28:51.213Z,18.40
2022-08-28T06:31:23.705Z,18.50
2022-08-28T06:33:57.232Z,18.47
2022-08-28T06:36:27.480Z,18.40
2022-08-28T06:38:58.112Z,18.93
2022-08-28T06:41:26.544Z,19.56
2022-08-28T06:43:53.708Z,19.87
2022-08-28T06:46:21.972Z,19.74
2022-08-28T06:48:48.812Z,20.03
2022-08-28T06:51:15.528Z,19.82
2022-08-28T06:53:43.624Z,19.88
2022-08-28T06:56:26.360Z,19.54
2022-08-28T06:58:56.385Z,19.45
2022-08-28T07:01:27.103Z,19.46
2022-08-28T07:03:56.791Z,19.41
2022-08-28T07:06:24.423Z,19.50
2022-08-28T07:08:51.884Z,19.79
2022-08-28T07:11:26.303Z,19.80
2022-08-28T07:13:54.196Z,19.67
2022-08-28T07:16:24.244Z,19.54
2022-08-28T07:18:51.172Z,19.37
2022-08-28T07:21:17.995Z,19.43
2022-08-28T07:23:46.038Z,19.53
2022-08-28T07:26:22.717Z,19.42
2022-08-28T07:28:51.102Z,19.50
2022-08-28T07:31:22.185Z,19.63
2022-08-28T07:33:53.888Z,19.43
2022-08-28T07:36:29.822Z,19.26
2022-08-28T07:38:59.022Z,19.59
2022-08-28T07:41:32.553Z,19.82
2022-08-28T07:44:18.575Z,20.15
2022-08-28T07:46:46.189Z,20.37
2022-08-28T07:49:16.942Z,20.50
2022-08-28T07:51:43.917Z,20.74
2022-08-28T07:54:18.145Z,20.65
2022-08-28T07:56:48.539Z,20.40
2022-08-28T07:59:19.086Z,20.25
2022-08-28T08:01:47.938Z,20.25
2022-08-28T08:04:16.563Z,19.90
2022-08-28T08:06:44.655Z,19.77
2022-08-28T08:09:16.875Z,20.20
2022-08-28T08:11:44.568Z,20.13
2022-08-28T08:14:12.347Z,20.07
2022-08-28T08:16:41.902Z,19.92
2022-08-28T08:19:13.734Z,19.91
2022-08-28T08:21:46.116Z,19.99
2022-08-28T08:24:19.396Z,19.68
2022-08-28T08:26:59.761Z,19.70
2022-08-28T08:29:33.395Z,19.92
2022-08-28T08:32:05.860Z,20.34
2022-08-28T08:34:36.650Z,21.00
2022-08-28T08:37:05.568Z,21.28
2022-08-28T08:39:33.848Z,20.61
2022-08-28T08:42:03.914Z,20.51
2022-08-28T08:44:38.860Z,20.47
2022-08-28T08:47:20.067Z,20.43
2022-08-28T08:49:53.096Z,20.32
2022-08-28T08:52:25.587Z,20.16
2022-08-28T08:55:23.303Z,19.98
2022-08-28T08:57:59.496Z,19.66
2022-08-28T09:00:27.388Z,19.74
2022-08-28T09:03:06.579Z,20.06
2022-08-28T09:06:00.302Z,20.16
2022-08-28T09:08:41.707Z,20.06
2022-08-28T09:11:29.664Z,19.92
2022-08-28T09:14:20.534Z,20.03
2022-08-28T09:16:47.909Z,20.15
2022-08-28T09:19:21.145Z,20.24
2022-08-28T09:21:50.555Z,20.10
2022-08-28T09:24:20.416Z,20.06
2022-08-28T09:26:58.213Z,20.19
2022-08-28T09:29:37.433Z,20.36
2022-08-28T09:32:25.482Z,20.01
2022-08-28T09:35:23.191Z,20.29
2022-08-28T09:37:50.466Z,20.45
2022-08-28T09:40:52.470Z,21.00
2022-08-28T09:43:27.998Z,20.91
2022-08-28T09:45:59.534Z,20.74
2022-08-28T09:48:52.828Z,21.22
2022-08-28T09:51:22.555Z,21.20
2022-08-28T09:53:52.218Z,21.02
2022-08-28T09:56:21.375Z,20.85
2022-08-28T09:58:57.228Z,20.72
2022-08-28T10:01:37.524Z,20.46
2022-08-28T10:04:19.623Z,20.29
2022-08-28T10:06:55.087Z,20.33
2022-08-28T10:09:47.700Z,20.63
2022-08-28T10:12:32.741Z,20.88
2022-08-28T10:15:15.439Z,20.63
2022-08-28T10:18:19.903Z,20.71
2022-08-28T10:21:14.160Z,20.64
2022-08-28T10:24:08.947Z,20.58
2022-08-28T10:26:44.886Z,20.36
2022-08-28T10:29:49.558Z,20.30
2022-08-28T10:32:48.473Z,19.97
2022-08-28T10:35:25.909Z,20.06
2022-08-28T10:38:22.496Z,19.91
2022-08-28T10:40:52.286Z,19.80
2022-08-28T10:43:29.235Z,19.69
2022-08-28T10:46:06.062Z,19.55
2022-08-28T10:48:42.748Z,19.68
2022-08-28T10:51:17.574Z,19.63
2022-08-28T10:53:58.178Z,19.69
2022-08-28T10:56:30.463Z,19.90
2022-08-28T10:58:59.329Z,19.96
2022-08-28T11:01:36.568Z,19.82
2022-08-28T11:04:10.366Z,20.02
2022-08-28T11:06:43.294Z,19.90
2022-08-28T11:09:28.009Z,19.90
2022-08-28T11:12:02.495Z,20.09
2022-08-28T11:14:47.728Z,20.44
2022-08-28T11:17:33.360Z,20.77
2022-08-28T11:20:15.378Z,20.79
2022-08-28T11:22:49.558Z,20.55
2022-08-28T11:25:32.320Z,20.56
2022-08-28T11:28:24.289Z,20.78
2022-08-28T11:31:06.439Z,21.45
2022-08-28T11:33:52.284Z,21.81
2022-08-28T11:36:21.752Z,21.83
2022-08-28T11:38:51.523Z,21.87
2022-08-28T11:41:24.285Z,21.91
2022-08-28T11:44:09.483Z,21.97
2022-08-28T11:46:45.554Z,22.79
2022-08-28T11:49:26.213Z,22.93
2022-08-28T11:52:20.497Z,22.40
2022-08-28T11:55:05.941Z,21.99
2022-08-28T11:57:48.439Z,22.14
2022-08-28T12:00:43.594Z,22.42
2022-08-28T12:03:14.348Z,23.20
2022-08-28T12:05:47.122Z,23.34
2022-08-28T12:08:46.842Z,24.26
2022-08-28T12:11:44.931Z,25.35
2022-08-28T12:14:25.389Z,25.36
2022-08-28T12:17:01.332Z,26.23
2022-08-28T12:19:55.334Z,25.96
2022-08-28T12:22:26.572Z,26.03
2022-08-28T12:25:06.450Z,25.97
2022-08-28T12:27:38.380Z,26.26
2022-08-28T12:30:05.843Z,26.30
2022-08-28T12:32:38.585Z,26.47
2022-08-28T12:35:16.135Z,26.90
2022-08-28T12:37:58.489Z,26.77
2022-08-28T12:40:29.501Z,26.82
2022-08-28T12:43:00.116Z,27.00
2022-08-28T12:45:42.141Z,26.85
2022-08-28T12:48:22.269Z,27.11
2022-08-28T12:51:03.128Z,27.25
2022-08-28T12:53:42.916Z,26.09
2022-08-28T12:56:12.170Z,26.76
2022-08-28T12:58:40.859Z,27.29
2022-08-28T13:01:09.623Z,27.31
2022-08-28T13:03:52.391Z,27.56
2022-08-28T13:06:29.319Z,27.71
2022-08-28T13:09:06.129Z,27.76
2022-08-28T13:11:44.767Z,27.87
2022-08-28T13:14:11.582Z,27.74
2022-08-28T13:16:40.409Z,28.43
2022-08-28T13:19:07.169Z,28.47
2022-08-28T13:21:58.651Z,28.38
2022-08-28T13:24:35.807Z,28.37
2022-08-28T13:27:16.432Z,28.40
2022-08-28T13:29:50.308Z,28.67
2022-08-28T13:32:17.951Z,28.35
2022-08-28T13:35:07.845Z,28.52
2022-08-28T13:38:08.818Z,28.67
2022-08-28T13:40:57.384Z,28.54
2022-08-28T13:43:26.557Z,28.33
2022-08-28T13:45:53.562Z,28.43
2022-08-28T13:48:28.027Z,27.82
2022-08-28T13:51:10.772Z,28.01
2022-08-28T13:53:41.520Z,28.03
2022-08-28T13:56:08.356Z,27.99
2022-08-28T13:58:35.105Z,28.47
2022-08-28T14:01:02.395Z,28.01
2022-08-28T14:03:35.634Z,28.23
2022-08-28T14:06:16.355Z,27.93
2022-08-28T14:08:45.261Z,27.35
2022-08-28T14:11:14.102Z,27.61
2022-08-28T14:13:47.003Z,27.74
2022-08-28T14:16:24.170Z,28.17
2022-08-28T14:18:52.900Z,28.30
2022-08-28T14:21:20.409Z,28.17
2022-08-28T14:23:47.121Z,28.09
2022-08-28T14:26:13.788Z,28.41
2022-08-28T14:28:40.542Z,28.05
2022-08-28T14:31:12.325Z,28.37
2022-08-28T14:33:41.786Z,27.95
2022-08-28T14:36:16.032Z,28.30
2022-08-28T14:38:42.730Z,27.81
2022-08-28T14:41:09.688Z,26.90
2022-08-28T14:43:36.465Z,27.35
2022-08-28T14:46:04.296Z,26.89
2022-08-28T14:48:33.511Z,26.66
2022-08-28T14:51:02.449Z,26.28
2022-08-28T14:53:29.159Z,25.69
2022-08-28T14:55:56.013Z,25.52
2022-08-28T14:58:22.708Z,24.90
2022-08-28T15:00:51.182Z,25.05
2022-08-28T15:03:19.322Z,25.36
2022-08-28T15:05:46.982Z,25.32
2022-08-28T15:08:16.408Z,25.18
2022-08-28T15:10:44.082Z,24.88
2022-08-28T15:13:12.645Z,25.29
2022-08-28T15:15:42.309Z,25.46
2022-08-28T15:18:10.463Z,25.63
2022-08-28T15:20:42.977Z,25.53
2022-08-28T15:23:10.678Z,25.65
2022-08-28T15:25:37.820Z,25.90
2022-08-28T15:28:05.136Z,26.08
2022-08-28T15:30:32.126Z,26.26
2022-08-28T15:32:58.909Z,26.17
2022-08-28T15:35:25.691Z,26.33
2022-08-28T15:37:53.484Z,25.80
2022-08-28T15:40:39.202Z,25.59
2022-08-28T15:43:06.207Z,25.97
2022-08-28T15:45:37.461Z,26.31
2022-08-28T15:48:04.858Z,26.01
2022-08-28T15:50:31.718Z,26.60
2022-08-28T15:52:58.945Z,26.77
2022-08-28T15:55:26.407Z,26.51
2022-08-28T15:57:54.402Z,26.76
2022-08-28T16:00:21.621Z,26.30
2022-08-28T16:02:48.640Z,25.95
2022-08-28T16:05:16.245Z,26.39
2022-08-28T16:07:43.305Z,26.71
2022-08-28T16:10:13.354Z,25.88
2022-08-28T16:12:41.001Z,25.80
2022-08-28T16:15:08.812Z,25.80
2022-08-28T16:17:35.781Z,25.50
2022-08-28T16:20:06.488Z,25.75
2022-08-28T16:22:39.069Z,25.63
2022-08-28T16:25:07.158Z,25.63
2022-08-28T16:27:34.018Z,25.64
2022-08-28T16:30:01.041Z,25.63
2022-08-28T16:32:27.907Z,25.60
2022-08-28T16:34:54.682Z,25.32
2022-08-28T16:37:21.573Z,25.27
2022-08-28T16:39:54.721Z,24.71
2022-08-28T16:42:23.219Z,24.45
2022-08-28T16:44:50.004Z,24.53
2022-08-28T16:47:16.811Z,24.68
2022-08-28T16:49:43.832Z,24.50
2022-08-28T16:52:10.605Z,24.45
2022-08-28T16:54:37.381Z,24.05
2022-08-28T16:57:12.842Z,23.24
2022-08-28T16:59:39.817Z,23.26
2022-08-28T17:02:06.865Z,23.01
2022-08-28T17:04:35.457Z,22.79
2022-08-28T17:07:02.920Z,22.41
2022-08-28T17:09:30.239Z,22.37
2022-08-28T17:11:57.363Z,22.32
2022-08-28T17:14:26.417Z,22.24
2022-08-28T17:16:53.181Z,21.99
2022-08-28T17:19:23.206Z,21.84
2022-08-28T17:22:08.554Z,21.63
2022-08-28T17:24:35.693Z,21.40
2022-08-28T17:27:05.675Z,21.39
2022-08-28T17:29:34.653Z,21.29
2022-08-28T17:32:01.406Z,21.21
2022-08-28T17:34:30.380Z,21.09
2022-08-28T17:36:57.344Z,20.88
2022-08-28T17:39:25.846Z,20.60
2022-08-28T17:41:52.611Z,20.51
2022-08-28T17:44:19.694Z,20.30
2022-08-28T17:46:46.430Z,20.37
2022-08-28T17:49:13.836Z,20.20
2022-08-28T17:51:42.549Z,20.27
2022-08-28T17:54:24.039Z,20.19
2022-08-28T17:56:53.073Z,19.94
2022-08-28T17:59:20.899Z,19.94
2022-08-28T18:01:48.102Z,19.96
2022-08-28T18:04:23.003Z,19.88
2022-08-28T18:06:53.602Z,19.88
2022-08-28T18:09:21.429Z,19.82
2022-08-28T18:11:48.281Z,19.75
2022-08-28T18:14:15.294Z,19.59
2022-08-28T18:16:42.168Z,19.55
2022-08-28T18:19:10.811Z,19.50
2022-08-28T18:21:38.978Z,19.24
2022-08-28T18:24:08.089Z,19.18
2022-08-28T18:26:35.009Z,19.06
2022-08-28T18:29:01.733Z,18.95
2022-08-28T18:31:28.868Z,18.87
2022-08-28T18:33:55.661Z,18.86
2022-08-28T18:36:23.242Z,18.78
2022-08-28T18:38:50.750Z,18.68
2022-08-28T18:41:19.541Z,18.59
2022-08-28T18:43:48.199Z,18.47
2022-08-28T18:46:15.136Z,18.46
2022-08-28T18:48:42.839Z,18.41
2022-08-28T18:51:11.753Z,18.34
2022-08-28T18:53:39.316Z,18.26
2022-08-28T18:56:12.299Z,18.24
2022-08-28T18:58:40.440Z,18.27
2022-08-28T19:01:09.234Z,18.19
2022-08-28T19:03:36.377Z,18.24
2022-08-28T19:06:03.339Z,18.18
2022-08-28T19:08:30.468Z,18.07
2022-08-28T19:10:57.275Z,18.10
2022-08-28T19:13:24.055Z,17.96
2022-08-28T19:15:52.719Z,17.98
2022-08-28T19:18:19.809Z,17.96
2022-08-28T19:20:47.111Z,17.88
2022-08-28T19:23:17.449Z,17.87
2022-08-28T19:25:45.040Z,17.82
2022-08-28T19:28:12.326Z,17.92
2022-08-28T19:30:39.100Z,17.95
2022-08-28T19:33:06.069Z,17.98
2022-08-28T19:35:33.861Z,17.99
2022-08-28T19:38:01.334Z,17.99
2022-08-28T19:40:28.951Z,17.87
2022-08-28T19:42:55.728Z,17.77
2022-08-28T19:45:23.197Z,17.79
2022-08-28T19:47:50.104Z,17.77
2022-08-28T19:50:16.989Z,17.83
2022-08-28T19:52:44.888Z,17.97
2022-08-28T19:55:29.989Z,18.02
2022-08-28T19:57:56.996Z,18.07
2022-08-28T20:00:29.294Z,18.17
2022-08-28T20:02:56.285Z,18.17
2022-08-28T20:05:23.514Z,18.22
2022-08-28T20:07:50.893Z,18.20
2022-08-28T20:10:18.333Z,18.19
2022-08-28T20:12:48.468Z,18.17
2022-08-28T20:15:17.615Z,18.05
2022-08-28T20:17:50.045Z,18.04
2022-08-28T20:20:24.596Z,18.02
2022-08-28T20:22:54.014Z,18.14
2022-08-28T20:25:21.228Z,18.20
2022-08-28T20:27:47.903Z,18.28
2022-08-28T20:30:14.828Z,18.13
2022-08-28T20:32:41.664Z,18.22
2022-08-28T20:35:10.720Z,18.22
2022-08-28T20:37:45.511Z,18.30
2022-08-28T20:40:16.411Z,18.28
2022-08-28T20:42:43.531Z,18.37
2022-08-28T20:45:12.090Z,18.38
2022-08-28T20:47:39.185Z,18.37
2022-08-28T20:50:06.727Z,18.39
2022-08-28T20:52:33.525Z,18.41
2022-08-28T20:55:00.271Z,18.50
2022-08-28T20:57:27.000Z,18.54
2022-08-28T20:59:54.210Z,18.57
2022-08-28T21:02:24.334Z,18.52
2022-08-28T21:04:52.013Z,18.53
2022-08-28T21:07:20.787Z,18.50
2022-08-28T21:10:06.119Z,18.59
2022-08-28T21:12:39.166Z,18.53
2022-08-28T21:15:08.464Z,18.55
2022-08-28T21:17:35.526Z,18.53
2022-08-28T21:20:06.958Z,18.51
2022-08-28T21:22:35.268Z,18.53
2022-08-28T21:25:05.089Z,18.57
2022-08-28T21:27:31.932Z,18.58
2022-08-28T21:30:00.249Z,18.58
2022-08-28T21:32:28.548Z,18.50
2022-08-28T21:34:55.503Z,18.51
2022-08-28T21:37:22.835Z,18.47
2022-08-28T21:39:49.646Z,18.47
2022-08-28T21:42:16.488Z,18.33
2022-08-28T21:44:48.318Z,18.38
2022-08-28T21:47:19.199Z,18.30
2022-08-28T21:49:51.737Z,18.26
2022-08-28T21:52:19.178Z,18.30
2022-08-28T21:54:46.074Z,18.38
2022-08-28T21:57:12.916Z,18.36
2022-08-28T21:59:40.418Z,18.29
2022-08-28T22:02:07.341Z,18.25
2022-08-28T22:04:34.816Z,18.27
2022-08-28T22:07:02.039Z,18.30
2022-08-28T22:09:30.054Z,18.24
2022-08-28T22:11:57.117Z,18.11
2022-08-28T22:14:25.159Z,18.05
2022-08-28T22:16:52.317Z,18.09
2022-08-28T22:19:19.337Z,17.99
2022-08-28T22:22:04.631Z,17.99
2022-08-28T22:24:31.458Z,17.96
2022-08-28T22:26:58.185Z,17.89
2022-08-28T22:29:25.578Z,17.95
2022-08-28T22:31:52.926Z,17.95
2022-08-28T22:34:19.995Z,17.99
2022-08-28T22:36:47.046Z,17.95
2022-08-28T22:39:13.905Z,18.02
2022-08-28T22:41:42.138Z,17.95
2022-08-28T22:44:09.282Z,17.94
2022-08-28T22:46:36.176Z,17.95
2022-08-28T22:49:03.721Z,18.00
2022-08-28T22:51:32.834Z,17.85
2022-08-28T22:54:00.639Z,17.91
2022-08-28T22:56:27.363Z,17.80
2022-08-28T22:58:54.142Z,17.83
2022-08-28T23:01:23.621Z,17.88
2022-08-28T23:03:51.136Z,17.97
2022-08-28T23:06:18.570Z,17.89
2022-08-28T23:08:45.287Z,17.90
2022-08-28T23:11:12.148Z,17.87
2022-08-28T23:13:39.247Z,17.87
2022-08-28T23:16:07.246Z,17.83
2022-08-28T23:18:51.911Z,17.81
2022-08-28T23:21:24.137Z,17.77
2022-08-28T23:23:53.588Z,17.74
2022-08-28T23:26:20.564Z,17.77
2022-08-28T23:28:47.343Z,17.77
2022-08-28T23:31:14.217Z,17.84
2022-08-28T23:33:41.160Z,17.85
2022-08-28T23:36:08.454Z,17.84
2022-08-28T23:38:38.951Z,17.79
2022-08-28T23:41:07.567Z,17.79
2022-08-28T23:43:35.027Z,17.76
2022-08-28T23:46:02.153Z,17.76
2022-08-28T23:48:29.593Z,17.75
2022-08-28T23:50:56.377Z,17.73
2022-08-28T23:53:23.396Z,17.74
2022-08-28T23:55:50.309Z,17.77
2022-08-28T23:58:20.704Z,17.78
